Time;durP1;ratioP1;P1;durP2;ratioP2;P2;SDS_P1;SDS_P2;PMS_P1;PMS_P2;Temp;Humidity;BMP_temperature;BMP_pressure;BME280_temperature;BME280_humidity;BME280_pressure;Samples;Min_cycle;Max_cycle;Signal;HPM_P1;HPM_P2
2022/01/04 00:00:23;;;;;;;5.93;3.15;;;;;;;7.46;100.00;100233.25;5092963;28;20024;-86
2022/01/04 00:02:48;;;;;;;6.47;3.47;;;;;;;7.46;100.00;100227.22;5092401;28;20030;-86
2022/01/04 00:05:14;;;;;;;4.00;3.30;;;;;;;7.46;100.00;100227.22;5092665;28;20064;-87
2022/01/04 00:07:39;;;;;;;5.20;3.60;;;;;;;7.43;100.00;100211.72;5091632;28;20055;-86
2022/01/04 00:10:08;;;;;;;5.13;3.25;;;;;;;7.46;100.00;100220.31;5092513;28;20395;-85
2022/01/04 00:15:18;;;;;;;4.68;3.10;;;;;;;7.45;100.00;100215.13;5071737;28;20040;-86
2022/01/04 00:17:43;;;;;;;8.40;3.30;;;;;;;7.47;100.00;100210.78;5072032;28;20388;-87
2022/01/04 00:20:09;;;;;;;5.28;3.10;;;;;;;7.44;100.00;100203.91;5072464;28;20043;-86
2022/01/04 00:22:35;;;;;;;5.90;3.30;;;;;;;7.42;100.00;100194.44;5070960;28;20086;-86
2022/01/04 00:25:00;;;;;;;8.80;3.83;;;;;;;7.40;100.00;100193.63;5072201;28;20029;-87
2022/01/04 00:27:25;;;;;;;5.85;3.17;;;;;;;7.44;100.00;100197.88;5087506;28;20084;-85
2022/01/04 00:29:51;;;;;;;6.05;3.63;;;;;;;7.41;100.00;100172.84;5091673;28;20067;-87
2022/01/04 00:32:17;;;;;;;7.60;3.30;;;;;;;7.44;100.00;100169.34;5092650;28;20035;-86
2022/01/04 00:34:43;;;;;;;7.65;3.70;;;;;;;7.44;100.00;100169.34;5092054;28;20048;-85
2022/01/04 00:37:08;;;;;;;7.40;3.40;;;;;;;7.42;100.00;100159.00;5090643;28;20472;-86
2022/01/04 00:39:34;;;;;;;9.10;3.88;;;;;;;7.43;100.00;100150.34;5090438;28;20472;-86
2022/01/04 00:41:59;;;;;;;9.43;3.78;;;;;;;7.40;100.00;100144.38;5092008;28;20032;-85
2022/01/04 00:44:25;;;;;;;10.07;4.20;;;;;;;7.35;100.00;100136.66;5091202;28;20028;-87
2022/01/04 00:46:50;;;;;;;6.55;3.88;;;;;;;7.36;100.00;100137.53;5092271;28;20369;-86
2022/01/04 00:49:17;;;;;;;8.27;3.67;;;;;;;7.33;100.00;100130.69;5091984;28;20032;-86
2022/01/04 00:51:48;;;;;;;9.15;3.97;;;;;;;7.29;100.00;100126.41;5090857;28;20415;-86
2022/01/04 00:54:13;;;;;;;8.07;4.07;;;;;;;7.27;100.00;100129.06;5090707;28;20040;-87
2022/01/04 00:56:40;;;;;;;8.52;3.83;;;;;;;7.30;100.00;100128.16;5091482;28;20066;-87
2022/01/04 00:59:05;;;;;;;7.30;3.97;;;;;;;7.32;100.00;100134.13;5092046;28;20115;-85
2022/01/04 01:01:31;;;;;;;6.82;4.07;;;;;;;7.27;100.00;100118.69;5091609;28;20054;-87
2022/01/04 01:03:57;;;;;;;8.25;4.10;;;;;;;7.27;100.00;100118.69;5090795;28;20020;-86
2022/01/04 01:06:22;;;;;;;8.85;4.15;;;;;;;7.29;100.00;100118.66;5091636;28;20027;-86
2022/01/04 01:08:48;;;;;;;11.90;4.55;;;;;;;7.31;100.00;100118.63;5090468;28;20027;-86
2022/01/04 01:11:13;;;;;;;9.52;4.30;;;;;;;7.29;100.00;100110.88;5090857;28;20544;-87
2022/01/04 01:13:39;;;;;;;11.15;4.15;;;;;;;7.26;100.00;100110.97;5091600;28;20511;-86
2022/01/04 01:16:06;;;;;;;10.25;4.28;;;;;;;7.26;100.00;100117.00;5091617;28;20039;-86
2022/01/04 01:18:31;;;;;;;10.50;5.28;;;;;;;7.26;100.00;100117.00;5090459;28;20521;-86
2022/01/04 01:20:57;;;;;;;11.25;4.55;;;;;;;7.24;100.00;100115.31;5091728;28;20114;-86
2022/01/04 01:23:23;;;;;;;10.73;4.68;;;;;;;7.24;100.00;100113.56;5073977;28;20023;-86
2022/01/04 01:25:49;;;;;;;7.97;4.30;;;;;;;7.24;100.00;100116.16;5070450;28;20024;-86
2022/01/04 01:28:15;;;;;;;12.13;5.00;;;;;;;7.18;100.00;100100.72;5071859;28;20040;-86
2022/01/04 01:30:42;;;;;;;9.80;4.43;;;;;;;7.23;100.00;100105.84;5071310;28;20031;-86
2022/01/04 01:33:08;;;;;;;10.13;4.75;;;;;;;7.20;100.00;100098.13;5070535;28;20469;-86
2022/01/04 01:35:35;;;;;;;8.70;4.45;;;;;;;7.15;100.00;100082.66;5070777;28;20025;-85
2022/01/04 01:38:01;;;;;;;9.43;5.10;;;;;;;7.21;100.00;100086.84;5085949;28;20032;-87
2022/01/04 01:40:26;;;;;;;10.93;5.00;;;;;;;7.19;100.00;100073.94;5090366;28;20020;-86
2022/01/04 01:42:52;;;;;;;11.57;4.97;;;;;;;7.18;100.00;100074.81;5091665;28;20054;-85
2022/01/04 01:45:18;;;;;;;12.90;5.00;;;;;;;7.14;100.00;100065.41;5091574;28;20498;-85
2022/01/04 01:47:44;;;;;;;11.02;5.10;;;;;;;7.16;100.00;100057.56;5088309;28;20547;-86
2022/01/04 01:50:11;;;;;;;11.00;5.90;;;;;;;7.19;100.00;100075.66;5091449;28;20032;-86
2022/01/04 01:52:39;;;;;;;10.25;5.65;;;;;;;7.19;100.00;100076.53;5090854;28;20100;-86
2022/01/04 01:55:05;;;;;;;12.18;5.10;;;;;;;7.17;100.00;100062.75;5090753;28;20097;-86
2022/01/04 01:57:30;;;;;;;9.85;5.40;;;;;;;7.17;100.00;100067.94;5091135;28;20043;-86
2022/01/04 01:59:56;;;;;;;12.15;6.07;;;;;;;7.14;100.00;100068.00;5091272;28;20067;-86
2022/01/04 02:02:21;;;;;;;11.07;5.63;;;;;;;7.16;100.00;100079.19;5075522;28;20028;-86
2022/01/04 02:04:47;;;;;;;14.93;5.70;;;;;;;7.12;100.00;100061.97;5071181;28;20078;-85
2022/01/04 02:07:13;;;;;;;11.40;5.85;;;;;;;7.13;100.00;100060.22;5070600;28;20391;-86
2022/01/04 02:09:46;;;;;;;11.48;5.65;;;;;;;7.09;100.00;100051.69;5070671;28;20556;-85
2022/01/04 02:12:12;;;;;;;13.25;5.50;;;;;;;7.09;100.00;100046.50;5071527;28;20035;-86
2022/01/04 02:14:37;;;;;;;11.82;5.70;;;;;;;7.01;100.00;100022.50;5069911;28;20024;-87
2022/01/04 02:17:03;;;;;;;14.13;6.07;;;;;;;7.10;100.00;100034.41;5079750;28;20508;-86
2022/01/04 02:19:28;;;;;;;13.10;5.65;;;;;;;7.10;100.00;100029.22;5074267;28;20024;-86
2022/01/04 02:21:53;;;;;;;11.48;5.95;;;;;;;7.05;100.00;100018.94;5073469;28;20024;-86
2022/01/04 02:24:22;;;;;;;15.05;5.63;;;;;;;7.06;100.00;100028.41;5074250;28;20021;-87
2022/01/04 02:26:48;;;;;;;11.02;5.45;;;;;;;7.05;100.00;100013.75;5074373;28;20029;-86
2022/01/04 02:29:13;;;;;;;10.65;5.97;;;;;;;7.04;100.00;100018.09;5073727;28;20028;-86
2022/01/04 02:31:38;;;;;;;11.88;7.10;;;;;;;7.06;100.00;100025.81;5085881;28;20055;-85
2022/01/04 02:34:04;;;;;;;9.65;5.50;;;;;;;7.06;100.00;100015.47;5094529;28;20023;-86
2022/01/04 02:36:29;;;;;;;12.98;6.57;;;;;;;7.02;100.00;100011.22;5091137;28;20027;-86
2022/01/04 02:38:54;;;;;;;10.25;5.43;;;;;;;7.04;100.00;100019.84;5094554;28;20035;-86
2022/01/04 02:41:20;;;;;;;16.35;6.72;;;;;;;7.01;100.00;100015.56;5094574;28;20035;-86
2022/01/04 02:43:45;;;;;;;12.00;6.28;;;;;;;6.98;100.00;100007.84;5093711;28;20031;-86
2022/01/04 02:46:10;;;;;;;14.68;6.65;;;;;;;7.01;100.00;100009.53;5094192;28;20460;-86
2022/01/04 02:48:43;;;;;;;11.93;6.07;;;;;;;7.03;100.00;100000.84;5093858;28;20028;-86
2022/01/04 02:51:09;;;;;;;14.05;6.30;;;;;;;6.97;100.00;99984.59;5088097;28;20060;-87
2022/01/04 02:53:34;;;;;;;13.15;6.70;;;;;;;7.01;100.00;100002.63;5073282;28;20094;-86
2022/01/04 02:56:00;;;;;;;14.43;6.32;;;;;;;6.98;100.00;99987.13;5073900;28;20056;-87
2022/01/04 02:58:25;;;;;;;10.18;5.55;;;;;;;6.94;100.00;99977.72;5086093;28;20372;-86
2022/01/04 03:00:50;;;;;;;11.13;5.72;;;;;;;6.99;100.00;99975.88;5094202;28;20031;-86
2022/01/04 03:03:15;;;;;;;10.77;5.78;;;;;;;7.01;100.00;99974.09;5093560;28;20102;-85
2022/01/04 03:05:41;;;;;;;13.57;6.93;;;;;;;6.99;100.00;99968.09;5093135;28;20081;-86
2022/01/04 03:08:06;;;;;;;10.68;5.13;;;;;;;6.97;100.00;99964.69;5093963;28;20093;-86
2022/01/04 03:10:32;;;;;;;10.88;5.32;;;;;;;7.00;100.00;99963.78;5092930;28;20024;-86
2022/01/04 03:12:57;;;;;;;10.73;5.32;;;;;;;7.01;100.00;99962.91;5092877;28;20026;-85
2022/01/04 03:15:23;;;;;;;11.27;5.47;;;;;;;6.97;100.00;99945.72;5093653;28;20036;-86
2022/01/04 03:17:48;;;;;;;10.50;5.15;;;;;;;6.96;100.00;99954.34;5092348;28;20024;-86
2022/01/04 03:20:13;;;;;;;9.95;5.32;;;;;;;6.95;100.00;99953.50;5093567;28;20024;-86
2022/01/04 03:22:39;;;;;;;9.90;5.28;;;;;;;6.89;100.00;99929.47;5092850;28;20028;-85
2022/01/04 03:25:05;;;;;;;10.48;5.25;;;;;;;6.92;100.00;99932.84;5092929;28;20085;-86
2022/01/04 03:27:31;;;;;;;9.18;5.20;;;;;;;6.91;100.00;99923.38;5090747;28;20081;-86
2022/01/04 03:29:56;;;;;;;10.43;4.93;;;;;;;6.86;100.00;99914.00;5093171;28;20028;-86
2022/01/04 03:32:21;;;;;;;9.70;5.03;;;;;;;6.92;100.00;99914.72;5092607;28;20073;-87
2022/01/04 03:34:47;;;;;;;8.68;5.20;;;;;;;6.88;100.00;99901.88;5092617;28;20426;-86
2022/01/04 03:37:12;;;;;;;12.88;4.78;;;;;;;6.92;100.00;99900.91;5093464;28;20032;-86
2022/01/04 03:39:37;;;;;;;9.65;4.80;;;;;;;6.93;100.00;99902.59;5092577;28;20036;-87
2022/01/04 03:42:03;;;;;;;9.70;5.53;;;;;;;6.86;100.00;99885.50;5083053;28;20036;-86
2022/01/04 03:44:29;;;;;;;8.85;4.88;;;;;;;6.93;100.00;99889.66;5072357;28;20029;-86
2022/01/04 03:46:55;;;;;;;8.85;5.18;;;;;;;6.92;100.00;99877.59;5072301;28;20032;-86
2022/01/04 03:49:21;;;;;;;10.38;5.70;;;;;;;6.90;100.00;99880.22;5072709;28;20507;-86
2022/01/04 03:51:47;;;;;;;10.93;5.38;;;;;;;6.90;100.00;99869.00;5072818;28;20029;-86
2022/01/04 03:54:12;;;;;;;11.15;5.63;;;;;;;6.91;100.00;99868.13;5072032;28;20037;-86
2022/01/04 03:56:38;;;;;;;10.02;5.40;;;;;;;6.91;100.00;99870.72;5079268;28;20032;-86
2022/01/04 03:59:04;;;;;;;9.70;5.15;;;;;;;6.91;100.00;99860.34;5092982;28;20056;-86
2022/01/04 04:01:30;;;;;;;11.50;5.30;;;;;;;6.89;100.00;99851.75;5091757;28;20016;-86
2022/01/04 04:03:55;;;;;;;13.02;6.03;;;;;;;6.89;100.00;99847.41;5092864;28;20050;-86
2022/01/04 04:06:21;;;;;;;14.68;5.97;;;;;;;6.83;100.00;99836.34;5092960;28;20020;-87
2022/01/04 04:08:46;;;;;;;13.65;6.20;;;;;;;6.86;100.00;99831.09;5092013;28;20020;-87
2022/01/04 04:11:12;;;;;;;12.48;5.95;;;;;;;6.84;100.00;99825.97;5091935;28;20028;-86
2022/01/04 04:13:37;;;;;;;10.30;5.90;;;;;;;6.84;100.00;99831.16;5091245;28;20032;-87
2022/01/04 04:16:03;;;;;;;9.65;6.10;;;;;;;6.85;100.00;99834.59;5092445;28;20115;-87
2022/01/04 04:18:28;;;;;;;13.90;6.68;;;;;;;6.85;100.00;99824.22;5091951;28;20020;-86
2022/01/04 04:20:54;;;;;;;12.30;6.38;;;;;;;6.85;100.00;99821.63;5092233;28;20459;-86
2022/01/04 04:23:19;;;;;;;12.95;6.88;;;;;;;6.84;100.00;99806.97;5092644;28;20387;-86
2022/01/04 04:25:44;;;;;;;11.77;6.45;;;;;;;6.85;100.00;99819.03;5089286;28;20072;-86
2022/01/04 04:28:10;;;;;;;12.35;6.80;;;;;;;6.83;100.00;99811.28;5091810;28;20020;-86
2022/01/04 04:30:35;;;;;;;11.57;6.65;;;;;;;6.82;100.00;99809.59;5092145;28;20065;-86
2022/01/04 04:33:00;;;;;;;12.85;6.68;;;;;;;6.78;100.00;99815.75;5092140;28;20400;-86
2022/01/04 04:35:26;;;;;;;11.77;6.93;;;;;;;6.82;100.00;99813.94;5090277;28;20464;-86
2022/01/04 04:37:51;;;;;;;12.10;6.90;;;;;;;6.82;100.00;99801.81;5092448;28;20020;-85
2022/01/04 04:40:16;;;;;;;10.10;6.32;;;;;;;6.81;100.00;99805.31;5092290;28;20028;-86
2022/01/04 04:42:41;;;;;;;12.23;6.65;;;;;;;6.81;100.00;99805.31;5090820;28;20027;-86
2022/01/04 04:45:08;;;;;;;11.25;6.38;;;;;;;6.78;100.00;99801.06;5092248;28;20110;-86
2022/01/04 04:47:33;;;;;;;11.95;7.03;;;;;;;6.81;100.00;99805.31;5091554;28;20436;-86
2022/01/04 04:50:00;;;;;;;9.75;6.30;;;;;;;6.80;100.00;99794.09;5089908;28;20044;-86
2022/01/04 04:52:25;;;;;;;13.65;6.78;;;;;;;6.77;100.00;99806.28;5091765;28;20031;-86
2022/01/04 04:54:50;;;;;;;11.23;7.20;;;;;;;6.71;100.00;99802.09;5091763;28;20044;-86
2022/01/04 04:57:16;;;;;;;12.63;7.35;;;;;;;6.73;100.00;99810.66;5091299;28;20028;-86
2022/01/04 04:59:41;;;;;;;13.68;7.22;;;;;;;6.77;100.00;99814.06;5091398;28;20020;-86
2022/01/04 05:02:07;;;;;;;15.00;7.38;;;;;;;6.78;100.00;99818.34;5091971;28;20028;-86
2022/01/04 05:04:34;;;;;;;14.50;7.35;;;;;;;6.78;100.00;99805.38;5078391;28;20468;-86
2022/01/04 05:06:59;;;;;;;12.60;7.32;;;;;;;6.77;100.00;99790.75;5071652;28;20388;-86
2022/01/04 05:09:24;;;;;;;13.52;7.45;;;;;;;6.71;100.00;99783.97;5071583;28;20078;-86
2022/01/04 05:11:49;;;;;;;11.93;7.15;;;;;;;6.71;100.00;99788.28;5070948;28;20043;-86
2022/01/04 05:14:15;;;;;;;16.33;7.72;;;;;;;6.70;100.00;99792.63;5084884;28;20062;-86
2022/01/04 05:16:40;;;;;;;12.90;7.97;;;;;;;6.73;100.00;99789.09;5091283;28;20038;-85
2022/01/04 05:19:05;;;;;;;11.57;7.72;;;;;;;6.72;100.00;99779.63;5091093;28;20028;-86
2022/01/04 05:21:30;;;;;;;12.40;7.40;;;;;;;6.69;100.00;99771.94;5091614;28;20020;-86
2022/01/04 05:23:56;;;;;;;11.77;7.50;;;;;;;6.70;100.00;99773.63;5091354;28;20020;-86
2022/01/04 05:26:21;;;;;;;12.55;7.80;;;;;;;6.72;100.00;99762.34;5091737;28;20020;-87
2022/01/04 05:28:47;;;;;;;13.20;7.72;;;;;;;6.71;100.00;99775.34;5090116;28;20024;-85
2022/01/04 05:31:13;;;;;;;11.98;7.85;;;;;;;6.73;100.00;99774.41;5090990;28;20483;-86
2022/01/04 05:33:39;;;;;;;14.93;8.18;;;;;;;6.63;100.00;99767.75;5091014;28;20111;-86
2022/01/04 05:36:04;;;;;;;13.23;8.25;;;;;;;6.55;100.00;99754.16;5091787;28;20115;-87
2022/01/04 05:38:30;;;;;;;15.02;8.30;;;;;;;6.54;100.00;99762.81;5090654;28;20115;-86
2022/01/04 05:40:56;;;;;;;13.98;8.27;;;;;;;6.49;100.00;99749.13;5089084;28;20475;-86
2022/01/04 05:43:21;;;;;;;12.50;7.93;;;;;;;6.47;100.00;99745.69;5091689;28;20082;-86
2022/01/04 05:45:46;;;;;;;15.82;9.05;;;;;;;6.41;100.00;99735.47;5090411;28;20539;-88
2022/01/04 05:48:12;;;;;;;13.73;9.13;;;;;;;6.46;100.00;99744.00;5091343;28;20034;-85
2022/01/04 05:50:38;;;;;;;13.57;9.18;;;;;;;6.43;100.00;99738.91;5091850;28;20076;-86
2022/01/04 05:53:04;;;;;;;16.40;9.45;;;;;;;6.45;100.00;99739.72;5094910;28;20048;-86
2022/01/04 05:55:30;;;;;;;13.60;8.85;;;;;;;6.43;100.00;99744.09;5080315;28;20505;-86
2022/01/04 05:57:55;;;;;;;17.48;10.05;;;;;;;6.41;100.00;99743.25;5074862;28;20037;-86
2022/01/04 06:00:20;;;;;;;12.93;8.88;;;;;;;6.39;100.00;99732.94;5074341;28;20170;-87
2022/01/04 06:02:45;;;;;;;17.08;10.10;;;;;;;6.40;100.00;99739.81;5073931;28;20040;-86
2022/01/04 06:05:11;;;;;;;15.55;10.02;;;;;;;6.35;100.00;99726.16;5075143;28;20125;-87
2022/01/04 06:07:36;;;;;;;17.67;10.45;;;;;;;6.39;100.00;99737.28;5073632;28;20155;-87
2022/01/04 06:10:03;;;;;;;20.95;11.48;;;;;;;6.37;100.00;99726.94;5074052;28;20032;-86
2022/01/04 06:15:02;;;;;;;17.90;10.13;;;;;;;6.33;100.00;99722.75;5073983;28;20024;-87
2022/01/04 06:17:30;;;;;;;18.00;10.68;;;;;;;6.31;100.00;99720.19;5074141;28;20086;-87
2022/01/04 06:19:57;;;;;;;20.25;11.57;;;;;;;6.25;100.00;99722.94;5085185;28;20028;-86
2022/01/04 06:22:27;;;;;;;16.63;11.23;;;;;;;6.29;100.00;99719.38;5094283;28;20024;-88
2022/01/04 06:24:54;;;;;;;19.23;11.35;;;;;;;6.25;100.00;99711.72;5094834;28;20138;-89
2022/01/04 06:27:20;;;;;;;20.58;11.18;;;;;;;6.23;100.00;99698.81;5094022;28;20036;-91
2022/01/04 06:29:46;;;;;;;20.45;11.57;;;;;;;6.25;100.00;99702.22;5094138;28;20024;-89
2022/01/04 06:32:12;;;;;;;21.73;12.02;;;;;;;6.23;100.00;99706.56;5094649;28;20111;-88
2022/01/04 06:34:39;;;;;;;21.80;11.43;;;;;;;6.22;100.00;99706.63;5080783;28;20115;-89
2022/01/04 06:37:06;;;;;;;22.25;12.05;;;;;;;6.25;100.00;99722.94;5074145;28;20075;-87
2022/01/04 06:39:32;;;;;;;21.55;11.80;;;;;;;6.27;100.00;99708.19;5073715;28;20028;-88
2022/01/04 06:41:57;;;;;;;19.45;11.60;;;;;;;6.28;100.00;99712.50;5073325;28;20023;-88
2022/01/04 06:44:23;;;;;;;18.90;11.40;;;;;;;6.28;100.00;99722.84;5074114;28;20107;-88
2022/01/04 06:46:48;;;;;;;21.00;12.15;;;;;;;6.25;100.00;99715.16;5073981;28;20028;-89
2022/01/04 06:49:15;;;;;;;20.52;11.95;;;;;;;6.28;100.00;99703.91;5073069;28;20085;-87
2022/01/04 06:51:42;;;;;;;20.48;12.38;;;;;;;6.23;100.00;99693.63;5073231;28;20036;-88
2022/01/04 06:54:08;;;;;;;20.60;11.90;;;;;;;6.23;100.00;99690.19;5073712;28;20094;-89
2022/01/04 06:56:34;;;;;;;19.80;12.13;;;;;;;6.26;100.00;99690.97;5072558;28;20107;-89
2022/01/04 06:58:59;;;;;;;22.00;12.77;;;;;;;6.25;100.00;99691.03;5073698;28;20031;-90
2022/01/04 07:01:24;;;;;;;21.73;13.30;;;;;;;6.27;100.00;99682.31;5073265;28;20028;-88
2022/01/04 07:03:49;;;;;;;22.40;12.55;;;;;;;6.26;100.00;99688.38;5073269;28;20032;-88
2022/01/04 07:06:15;;;;;;;21.75;13.18;;;;;;;6.27;100.00;99697.00;5078771;28;20093;-89
2022/01/04 07:08:40;;;;;;;21.95;13.07;;;;;;;6.20;100.00;99685.94;5093643;28;20024;-89
2022/01/04 07:11:05;;;;;;;23.30;13.25;;;;;;;6.23;100.00;99680.69;5092320;28;20030;-88
2022/01/04 07:13:31;;;;;;;26.38;13.30;;;;;;;6.22;100.00;99666.06;5093330;28;20028;-87
2022/01/04 07:15:56;;;;;;;24.38;13.88;;;;;;;6.20;100.00;99670.41;5093522;28;20064;-88
2022/01/04 07:18:24;;;;;;;23.80;13.88;;;;;;;6.22;100.00;99672.97;5083482;28;20063;-88
2022/01/04 07:20:49;;;;;;;22.17;12.95;;;;;;;6.23;100.00;99672.94;5081607;28;20028;-89
2022/01/04 07:23:15;;;;;;;23.08;13.57;;;;;;;6.20;100.00;99673.00;5085476;28;20029;-88
2022/01/04 07:25:40;;;;;;;25.40;14.30;;;;;;;6.18;100.00;99674.78;5072374;28;20468;-87
2022/01/04 07:28:06;;;;;;;27.40;14.57;;;;;;;6.19;100.00;99676.50;5073163;28;20024;-89
2022/01/04 07:30:31;;;;;;;25.92;14.00;;;;;;;6.15;100.00;99658.47;5072781;28;20532;-88
2022/01/04 07:32:56;;;;;;;25.38;13.77;;;;;;;6.16;100.00;99655.84;5072821;28;20042;-88
2022/01/04 07:35:22;;;;;;;25.05;14.02;;;;;;;6.19;100.00;99645.44;5073256;28;20518;-88
2022/01/04 07:37:47;;;;;;;28.92;14.18;;;;;;;6.19;100.00;99642.84;5076396;28;20063;-88
2022/01/04 07:40:13;;;;;;;33.17;15.63;;;;;;;6.21;100.00;99638.50;5093168;28;20052;-87
2022/01/04 07:42:38;;;;;;;29.65;14.73;;;;;;;6.19;100.00;99627.31;5092863;28;20074;-88
2022/01/04 07:45:04;;;;;;;24.65;13.93;;;;;;;6.17;100.00;99623.06;5092546;28;20477;-88
2022/01/04 07:47:29;;;;;;;25.27;13.63;;;;;;;6.14;100.00;99623.97;5092766;28;20028;-88
2022/01/04 07:49:55;;;;;;;25.00;14.13;;;;;;;6.09;100.00;99625.84;5093202;28;20524;-87
2022/01/04 07:52:20;;;;;;;29.00;15.57;;;;;;;6.11;100.00;99649.94;5091448;28;20383;-87
2022/01/04 07:54:45;;;;;;;28.17;14.23;;;;;;;6.12;100.00;99662.00;5092378;28;20123;-87
2022/01/04 07:57:11;;;;;;;29.38;14.35;;;;;;;6.14;100.00;99649.00;5092745;28;20478;-87
2022/01/04 07:59:36;;;;;;;31.33;15.40;;;;;;;6.18;100.00;99656.69;5091963;28;20020;-87
2022/01/04 08:02:02;;;;;;;31.60;15.00;;;;;;;6.22;100.00;99647.94;5092781;28;20024;-89
2022/01/04 08:04:27;;;;;;;30.00;14.93;;;;;;;6.20;100.00;99654.88;5092211;28;20036;-87
2022/01/04 08:06:52;;;;;;;30.83;14.93;;;;;;;6.14;100.00;99642.09;5090667;28;20129;-87
2022/01/04 08:09:17;;;;;;;29.00;15.40;;;;;;;6.17;100.00;99641.19;5072443;28;20028;-89
2022/01/04 08:11:43;;;;;;;27.30;15.00;;;;;;;6.20;100.00;99644.53;5071879;28;20055;-88
2022/01/04 08:14:08;;;;;;;29.08;14.52;;;;;;;6.22;100.00;99639.34;5071194;28;20028;-88
2022/01/04 08:16:34;;;;;;;32.00;15.75;;;;;;;6.18;100.00;99637.69;5086896;28;20073;-88
2022/01/04 08:19:00;;;;;;;26.75;14.50;;;;;;;6.17;100.00;99647.19;5092821;28;20110;-88
2022/01/04 08:21:25;;;;;;;28.30;15.02;;;;;;;6.19;100.00;99640.25;5091421;28;20020;-87
2022/01/04 08:23:50;;;;;;;36.45;15.18;;;;;;;6.18;100.00;99645.44;5092672;28;20035;-87
2022/01/04 08:26:16;;;;;;;30.15;14.95;;;;;;;6.22;100.00;99653.13;5075894;28;20023;-87
2022/01/04 08:28:41;;;;;;;28.75;14.75;;;;;;;6.22;100.00;99642.78;5079495;28;20028;-87
2022/01/04 08:31:07;;;;;;;31.40;15.35;;;;;;;6.24;100.00;99648.75;5091181;28;20464;-87
2022/01/04 08:33:32;;;;;;;29.65;15.30;;;;;;;6.21;100.00;99651.44;5092006;28;20024;-87
2022/01/04 08:35:58;;;;;;;34.05;15.55;;;;;;;6.22;100.00;99650.53;5091409;28;20032;-88
2022/01/04 08:38:23;;;;;;;30.13;15.75;;;;;;;6.23;100.00;99649.63;5092299;28;20024;-87
2022/01/04 08:40:48;;;;;;;31.85;15.93;;;;;;;6.18;100.00;99651.50;5091925;28;20046;-88
2022/01/04 08:43:14;;;;;;;33.58;15.52;;;;;;;6.21;100.00;99681.59;5091437;28;20035;-87
2022/01/04 08:45:39;;;;;;;29.60;14.85;;;;;;;6.20;100.00;99685.94;5090821;28;20032;-88
2022/01/04 08:48:05;;;;;;;31.25;15.40;;;;;;;6.21;100.00;99686.78;5091531;28;20031;-88
2022/01/04 08:50:30;;;;;;;31.42;14.20;;;;;;;6.20;100.00;99678.19;5091706;28;20074;-87
2022/01/04 08:52:56;;;;;;;32.17;14.73;;;;;;;6.20;100.00;99696.28;5092005;28;20452;-87
2022/01/04 08:55:23;;;;;;;31.23;14.73;;;;;;;6.17;100.00;99688.59;5089631;28;20044;-87
2022/01/04 08:57:49;;;;;;;38.83;16.05;;;;;;;6.22;100.00;99694.53;5091764;28;20044;-88
2022/01/04 09:00:15;;;;;;;31.38;15.27;;;;;;;6.21;100.00;99695.44;5092044;28;20028;-86
2022/01/04 09:02:41;;;;;;;34.85;16.45;;;;;;;6.20;100.00;99685.94;5090497;28;20480;-87
2022/01/04 09:05:07;;;;;;;29.35;15.48;;;;;;;6.22;100.00;99684.19;5091950;28;20028;-87
2022/01/04 09:07:33;;;;;;;31.17;15.52;;;;;;;6.27;100.00;99678.88;5091334;28;20030;-87
2022/01/04 09:09:58;;;;;;;32.15;15.63;;;;;;;6.30;100.00;99666.72;5088742;28;20038;-88
2022/01/04 09:12:29;;;;;;;36.92;16.92;;;;;;;6.36;100.00;99664.88;5091464;28;20430;-90
2022/01/04 09:15:05;;;;;;;32.90;16.38;;;;;;;6.35;100.00;99663.19;5091948;28;20028;-87
2022/01/04 09:20:14;;;;;;;34.75;17.20;;;;;;;6.32;100.00;99658.91;5092052;28;20043;-87
2022/01/04 09:22:41;;;;;;;35.95;16.40;;;;;;;6.38;100.00;99656.19;5091104;28;20032;-86
2022/01/04 09:25:07;;;;;;;29.88;15.82;;;;;;;6.44;100.00;99662.91;5089776;28;20036;-86
2022/01/04 09:27:32;;;;;;;30.45;16.20;;;;;;;6.44;100.00;99673.28;5095084;28;20043;-88
2022/01/04 09:30:02;;;;;;;35.80;17.55;;;;;;;6.42;100.00;99695.78;5095905;28;20020;-86
2022/01/04 09:32:28;;;;;;;36.17;18.05;;;;;;;6.42;100.00;99694.03;5094409;28;20070;-86
2022/01/04 09:34:53;;;;;;;34.50;16.58;;;;;;;6.33;100.00;99681.31;5095772;28;20032;-87
2022/01/04 09:37:18;;;;;;;30.98;17.33;;;;;;;6.42;100.00;99695.78;5094877;28;20024;-87
2022/01/04 09:39:43;;;;;;;32.85;17.20;;;;;;;6.42;100.00;99686.28;5078792;28;20124;-86
2022/01/04 09:42:09;;;;;;;35.20;16.75;;;;;;;6.46;100.00;99682.72;5075419;28;20020;-87
2022/01/04 09:44:35;;;;;;;35.15;17.08;;;;;;;6.46;100.00;99687.88;5074188;28;20044;-86
2022/01/04 09:47:02;;;;;;;36.90;17.70;;;;;;;6.42;100.00;99682.84;5075093;28;20539;-86
2022/01/04 09:49:29;;;;;;;36.00;17.80;;;;;;;6.46;100.00;99684.47;5074674;28;20032;-87
2022/01/04 09:51:55;;;;;;;38.80;18.67;;;;;;;6.50;100.00;99693.84;5074312;28;20020;-87
2022/01/04 09:54:23;;;;;;;35.15;17.90;;;;;;;6.48;100.00;99687.88;5088722;28;20040;-87
2022/01/04 09:56:50;;;;;;;38.70;20.15;;;;;;;6.45;100.00;99675.00;5095567;28;20020;-87
2022/01/04 09:59:16;;;;;;;35.35;18.42;;;;;;;6.47;100.00;99680.97;5094632;28;20051;-86
2022/01/04 10:01:43;;;;;;;40.97;18.98;;;;;;;6.51;100.00;99683.47;5094600;28;20063;-87
2022/01/04 10:04:09;;;;;;;42.10;19.38;;;;;;;6.50;100.00;99678.31;5095224;28;20023;-88
2022/01/04 10:06:37;;;;;;;38.65;19.88;;;;;;;6.51;100.00;99680.03;5092470;28;20032;-87
2022/01/04 10:09:08;;;;;;;40.28;20.25;;;;;;;6.54;100.00;99675.63;5088605;28;20028;-86
2022/01/04 10:11:37;;;;;;;38.83;20.42;;;;;;;6.64;100.00;99672.75;5074398;28;20025;-87
2022/01/04 10:14:26;;;;;;;43.38;19.92;;;;;;;6.69;100.00;99664.00;5077050;28;20467;-87
2022/01/04 10:16:52;;;;;;;44.88;20.33;;;;;;;6.76;100.00;99656.91;5083787;28;20468;-87
2022/01/04 10:19:28;;;;;;;42.95;21.25;;;;;;;6.75;100.00;99644.84;5094702;28;20073;-87
2022/01/04 10:22:17;;;;;;;40.70;21.25;;;;;;;6.83;100.00;99644.63;5092836;28;20119;-87
2022/01/04 10:24:45;;;;;;;40.90;21.00;;;;;;;6.86;100.00;99645.41;5080482;28;20035;-86
2022/01/04 10:27:28;;;;;;;43.63;20.50;;;;;;;6.91;100.00;99646.16;5093732;28;20052;-87
2022/01/04 10:30:12;;;;;;;48.67;21.50;;;;;;;6.91;100.00;99647.88;5094917;28;20032;-87
2022/01/04 10:32:51;;;;;;;;;;;;;;;6.94;100.00;99643.47;5094944;28;20038;-87
2022/01/04 10:35:25;;;;;;;39.35;20.05;;;;;;;6.93;100.00;99646.09;5094069;28;19951;-87
2022/01/04 10:37:52;;;;;;;40.58;21.20;;;;;;;6.98;100.00;99644.22;5094238;28;20028;-86
2022/01/04 10:40:18;;;;;;;39.42;21.50;;;;;;;6.98;100.00;99639.06;5093624;28;20032;-88
2022/01/04 10:42:43;;;;;;;37.47;20.67;;;;;;;7.07;100.00;99649.16;5093300;28;20361;-87
2022/01/04 10:45:27;;;;;;;37.80;21.38;;;;;;;7.08;100.00;99645.66;5094404;28;20023;-87
2022/01/04 10:47:53;;;;;;;45.33;20.58;;;;;;;7.04;100.00;99649.25;5093651;28;20028;-86
2022/01/04 10:50:32;;;;;;;37.17;20.77;;;;;;;7.03;100.00;99643.22;5094783;28;20024;-86
2022/01/04 10:52:59;;;;;;;37.53;19.42;;;;;;;7.01;100.00;99633.78;5093315;28;20035;-87
2022/01/04 10:55:30;;;;;;;40.55;20.88;;;;;;;7.04;100.00;99642.31;5093170;28;20489;-87
2022/01/04 10:57:55;;;;;;;39.60;20.73;;;;;;;7.10;100.00;99649.09;5094115;28;20085;-88
2022/01/04 11:00:22;;;;;;;45.72;21.67;;;;;;;7.10;100.00;99633.53;5094264;28;20414;-87
2022/01/04 11:02:47;;;;;;;43.65;20.90;;;;;;;7.12;100.00;99633.47;5092723;28;20082;-86
2022/01/04 11:05:17;;;;;;;39.20;21.85;;;;;;;7.15;100.00;99631.63;5093987;28;20048;-86
2022/01/04 11:08:03;;;;;;;39.38;21.25;;;;;;;7.19;100.00;99637.56;5081698;28;20375;-87
2022/01/04 11:10:34;;;;;;;43.88;21.38;;;;;;;7.20;100.00;99627.19;5072541;28;20074;-87
2022/01/04 11:13:00;;;;;;;43.63;22.48;;;;;;;7.18;100.00;99621.19;5073426;28;20471;-86
2022/01/04 11:15:26;;;;;;;38.83;21.13;;;;;;;7.18;100.00;99621.19;5073118;28;20028;-87
2022/01/04 11:17:52;;;;;;;40.20;21.38;;;;;;;7.13;100.00;99610.13;5072977;28;20021;-87
2022/01/04 11:20:17;;;;;;;42.28;21.80;;;;;;;7.12;100.00;99618.75;5073583;28;20127;-88
2022/01/04 11:22:45;;;;;;;45.05;23.45;;;;;;;7.12;100.00;99613.59;5083595;28;20408;-88
2022/01/04 11:25:13;;;;;;;37.88;20.50;;;;;;;7.16;100.00;99632.47;5093885;28;20039;-86